sensor_id;sensor_type;location;lat;lon;timestamp;P1;durP1;ratioP1;P2;durP2;ratioP2
25687;SDS011;17407;51.120;3.702;2023-02-26T00:00:36;12.07;;;3.78;;
25687;SDS011;17407;51.120;3.702;2023-02-26T00:03:02;11.52;;;4.18;;
25687;SDS011;17407;51.120;3.702;2023-02-26T00:05:28;9.20;;;4.07;;
25687;SDS011;17407;51.120;3.702;2023-02-26T00:07:53;12.57;;;4.53;;
25687;SDS011;17407;51.120;3.702;2023-02-26T00:10:19;11.98;;;4.95;;
25687;SDS011;17407;51.120;3.702;2023-02-26T00:12:45;13.25;;;4.80;;
25687;SDS011;17407;51.120;3.702;2023-02-26T00:15:11;9.77;;;4.85;;
25687;SDS011;17407;51.120;3.702;2023-02-26T00:20:13;18.83;;;4.82;;
25687;SDS011;17407;51.120;3.702;2023-02-26T00:22:41;14.10;;;3.55;;
25687;SDS011;17407;51.120;3.702;2023-02-26T00:25:08;9.60;;;3.65;;
25687;SDS011;17407;51.120;3.702;2023-02-26T00:27:35;11.75;;;3.55;;
25687;SDS011;17407;51.120;3.702;2023-02-26T00:30:02;12.52;;;3.47;;
25687;SDS011;17407;51.120;3.702;2023-02-26T00:32:30;7.40;;;2.97;;
25687;SDS011;17407;51.120;3.702;2023-02-26T00:34:56;10.50;;;2.55;;
25687;SDS011;17407;51.120;3.702;2023-02-26T00:42:29;6.55;;;2.38;;
25687;SDS011;17407;51.120;3.702;2023-02-26T00:44:55;9.65;;;2.90;;
25687;SDS011;17407;51.120;3.702;2023-02-26T00:47:55;10.98;;;3.05;;
25687;SDS011;17407;51.120;3.702;2023-02-26T00:50:23;9.50;;;2.35;;
25687;SDS011;17407;51.120;3.702;2023-02-26T00:55:39;6.88;;;2.75;;
25687;SDS011;17407;51.120;3.702;2023-02-26T00:58:05;8.13;;;2.97;;
25687;SDS011;17407;51.120;3.702;2023-02-26T01:00:31;10.63;;;3.08;;
25687;SDS011;17407;51.120;3.702;2023-02-26T01:02:57;8.02;;;2.80;;
25687;SDS011;17407;51.120;3.702;2023-02-26T01:05:23;8.98;;;3.88;;
25687;SDS011;17407;51.120;3.702;2023-02-26T01:10:37;10.88;;;3.72;;
25687;SDS011;17407;51.120;3.702;2023-02-26T01:13:03;11.50;;;3.20;;
25687;SDS011;17407;51.120;3.702;2023-02-26T01:15:29;13.15;;;3.33;;
25687;SDS011;17407;51.120;3.702;2023-02-26T01:18:15;12.32;;;3.47;;
25687;SDS011;17407;51.120;3.702;2023-02-26T01:20:46;12.98;;;3.63;;
25687;SDS011;17407;51.120;3.702;2023-02-26T01:23:26;6.40;;;2.75;;
25687;SDS011;17407;51.120;3.702;2023-02-26T01:25:57;7.97;;;2.83;;
25687;SDS011;17407;51.120;3.702;2023-02-26T01:28:27;10.98;;;2.65;;
25687;SDS011;17407;51.120;3.702;2023-02-26T01:30:54;7.20;;;2.65;;
25687;SDS011;17407;51.120;3.702;2023-02-26T01:33:27;9.15;;;2.95;;
25687;SDS011;17407;51.120;3.702;2023-02-26T01:36:00;11.05;;;2.95;;
25687;SDS011;17407;51.120;3.702;2023-02-26T01:49:32;4.15;;;2.28;;
25687;SDS011;17407;51.120;3.702;2023-02-26T01:51:59;11.23;;;3.72;;
25687;SDS011;17407;51.120;3.702;2023-02-26T01:54:31;7.63;;;2.58;;
25687;SDS011;17407;51.120;3.702;2023-02-26T01:57:04;10.45;;;2.40;;
25687;SDS011;17407;51.120;3.702;2023-02-26T01:59:40;7.50;;;1.98;;
25687;SDS011;17407;51.120;3.702;2023-02-26T02:02:09;10.52;;;2.47;;
25687;SDS011;17407;51.120;3.702;2023-02-26T02:04:36;4.07;;;2.38;;
25687;SDS011;17407;51.120;3.702;2023-02-26T02:07:04;8.07;;;2.40;;
25687;SDS011;17407;51.120;3.702;2023-02-26T02:09:30;8.18;;;2.40;;
25687;SDS011;17407;51.120;3.702;2023-02-26T02:22:56;6.63;;;2.08;;
25687;SDS011;17407;51.120;3.702;2023-02-26T02:25:36;11.63;;;2.22;;
25687;SDS011;17407;51.120;3.702;2023-02-26T02:39:22;6.78;;;2.08;;
25687;SDS011;17407;51.120;3.702;2023-02-26T02:41:58;7.53;;;2.08;;
25687;SDS011;17407;51.120;3.702;2023-02-26T02:44:45;9.00;;;2.80;;
25687;SDS011;17407;51.120;3.702;2023-02-26T02:47:16;8.68;;;2.55;;
25687;SDS011;17407;51.120;3.702;2023-02-26T02:49:46;6.18;;;1.92;;
25687;SDS011;17407;51.120;3.702;2023-02-26T02:55:09;8.73;;;2.20;;
25687;SDS011;17407;51.120;3.702;2023-02-26T02:57:46;9.15;;;2.83;;
25687;SDS011;17407;51.120;3.702;2023-02-26T03:00:17;5.55;;;2.40;;
25687;SDS011;17407;51.120;3.702;2023-02-26T03:05:52;8.82;;;2.42;;
25687;SDS011;17407;51.120;3.702;2023-02-26T03:08:22;8.70;;;2.20;;
25687;SDS011;17407;51.120;3.702;2023-02-26T03:10:54;9.70;;;2.35;;
25687;SDS011;17407;51.120;3.702;2023-02-26T03:13:21;9.43;;;2.60;;
25687;SDS011;17407;51.120;3.702;2023-02-26T03:18:53;8.43;;;2.60;;
25687;SDS011;17407;51.120;3.702;2023-02-26T03:21:38;7.53;;;1.58;;
25687;SDS011;17407;51.120;3.702;2023-02-26T03:24:23;21.00;;;2.53;;
25687;SDS011;17407;51.120;3.702;2023-02-26T03:27:16;5.35;;;1.60;;
25687;SDS011;17407;51.120;3.702;2023-02-26T03:30:25;10.50;;;1.73;;
25687;SDS011;17407;51.120;3.702;2023-02-26T03:35:26;7.82;;;1.63;;
25687;SDS011;17407;51.120;3.702;2023-02-26T03:40:43;5.40;;;1.60;;
25687;SDS011;17407;51.120;3.702;2023-02-26T03:43:24;6.72;;;1.85;;
25687;SDS011;17407;51.120;3.702;2023-02-26T03:45:58;5.03;;;2.00;;
25687;SDS011;17407;51.120;3.702;2023-02-26T03:48:27;12.88;;;2.15;;
25687;SDS011;17407;51.120;3.702;2023-02-26T03:50:56;6.32;;;1.90;;
25687;SDS011;17407;51.120;3.702;2023-02-26T03:53:26;10.30;;;2.47;;
25687;SDS011;17407;51.120;3.702;2023-02-26T03:56:01;10.85;;;2.45;;
25687;SDS011;17407;51.120;3.702;2023-02-26T03:58:40;6.72;;;2.40;;
25687;SDS011;17407;51.120;3.702;2023-02-26T04:01:07;7.50;;;2.08;;
25687;SDS011;17407;51.120;3.702;2023-02-26T04:03:39;15.15;;;3.67;;
25687;SDS011;17407;51.120;3.702;2023-02-26T04:06:12;10.20;;;2.22;;
25687;SDS011;17407;51.120;3.702;2023-02-26T04:08:38;8.52;;;1.50;;
25687;SDS011;17407;51.120;3.702;2023-02-26T04:11:06;3.92;;;1.42;;
25687;SDS011;17407;51.120;3.702;2023-02-26T04:13:35;10.55;;;1.77;;
25687;SDS011;17407;51.120;3.702;2023-02-26T04:16:01;7.78;;;1.90;;
25687;SDS011;17407;51.120;3.702;2023-02-26T04:18:28;7.72;;;2.28;;
25687;SDS011;17407;51.120;3.702;2023-02-26T04:20:54;4.25;;;1.45;;
25687;SDS011;17407;51.120;3.702;2023-02-26T04:23:19;7.10;;;1.60;;
25687;SDS011;17407;51.120;3.702;2023-02-26T04:25:45;5.82;;;1.60;;
25687;SDS011;17407;51.120;3.702;2023-02-26T04:28:11;3.70;;;1.60;;
25687;SDS011;17407;51.120;3.702;2023-02-26T04:30:37;9.43;;;2.42;;
25687;SDS011;17407;51.120;3.702;2023-02-26T04:33:03;9.48;;;3.10;;
25687;SDS011;17407;51.120;3.702;2023-02-26T04:35:28;4.70;;;1.50;;
25687;SDS011;17407;51.120;3.702;2023-02-26T04:37:54;7.28;;;1.70;;
25687;SDS011;17407;51.120;3.702;2023-02-26T04:40:20;7.07;;;1.70;;
25687;SDS011;17407;51.120;3.702;2023-02-26T04:42:47;7.03;;;1.48;;
25687;SDS011;17407;51.120;3.702;2023-02-26T04:45:13;5.50;;;1.70;;
25687;SDS011;17407;51.120;3.702;2023-02-26T04:47:39;13.15;;;1.98;;
25687;SDS011;17407;51.120;3.702;2023-02-26T04:50:05;6.22;;;1.42;;
25687;SDS011;17407;51.120;3.702;2023-02-26T04:52:31;9.35;;;1.58;;
25687;SDS011;17407;51.120;3.702;2023-02-26T04:54:56;2.92;;;1.23;;
25687;SDS011;17407;51.120;3.702;2023-02-26T04:57:22;3.67;;;1.08;;
25687;SDS011;17407;51.120;3.702;2023-02-26T04:59:48;6.88;;;1.85;;
25687;SDS011;17407;51.120;3.702;2023-02-26T05:02:14;6.07;;;1.52;;
25687;SDS011;17407;51.120;3.702;2023-02-26T05:04:39;11.27;;;1.67;;
25687;SDS011;17407;51.120;3.702;2023-02-26T05:07:05;5.82;;;1.40;;
25687;SDS011;17407;51.120;3.702;2023-02-26T05:09:31;5.72;;;1.55;;
25687;SDS011;17407;51.120;3.702;2023-02-26T05:11:56;6.68;;;1.27;;
25687;SDS011;17407;51.120;3.702;2023-02-26T05:14:22;6.35;;;1.55;;
25687;SDS011;17407;51.120;3.702;2023-02-26T05:16:48;5.78;;;2.22;;
25687;SDS011;17407;51.120;3.702;2023-02-26T05:19:13;4.97;;;1.60;;
25687;SDS011;17407;51.120;3.702;2023-02-26T05:21:39;7.00;;;1.52;;
25687;SDS011;17407;51.120;3.702;2023-02-26T05:24:05;7.55;;;1.30;;
25687;SDS011;17407;51.120;3.702;2023-02-26T05:26:31;7.93;;;1.80;;
25687;SDS011;17407;51.120;3.702;2023-02-26T05:28:57;6.72;;;1.55;;
25687;SDS011;17407;51.120;3.702;2023-02-26T05:31:22;8.25;;;1.60;;
25687;SDS011;17407;51.120;3.702;2023-02-26T05:33:48;7.30;;;1.35;;
25687;SDS011;17407;51.120;3.702;2023-02-26T05:36:14;7.25;;;1.50;;
25687;SDS011;17407;51.120;3.702;2023-02-26T05:38:40;2.80;;;1.17;;
25687;SDS011;17407;51.120;3.702;2023-02-26T05:41:05;5.68;;;1.08;;
25687;SDS011;17407;51.120;3.702;2023-02-26T05:43:31;9.25;;;1.27;;
25687;SDS011;17407;51.120;3.702;2023-02-26T05:45:58;5.15;;;1.17;;
25687;SDS011;17407;51.120;3.702;2023-02-26T05:48:23;7.63;;;1.58;;
25687;SDS011;17407;51.120;3.702;2023-02-26T05:50:49;17.00;;;1.90;;
25687;SDS011;17407;51.120;3.702;2023-02-26T05:53:15;6.72;;;1.42;;
25687;SDS011;17407;51.120;3.702;2023-02-26T05:55:41;6.03;;;1.23;;
25687;SDS011;17407;51.120;3.702;2023-02-26T05:58:07;6.35;;;1.38;;
25687;SDS011;17407;51.120;3.702;2023-02-26T06:00:32;5.03;;;1.50;;
25687;SDS011;17407;51.120;3.702;2023-02-26T06:02:58;7.68;;;1.63;;
25687;SDS011;17407;51.120;3.702;2023-02-26T06:05:24;7.88;;;1.60;;
25687;SDS011;17407;51.120;3.702;2023-02-26T06:07:49;10.02;;;1.77;;
25687;SDS011;17407;51.120;3.702;2023-02-26T06:10:15;7.03;;;1.77;;
25687;SDS011;17407;51.120;3.702;2023-02-26T06:12:41;3.22;;;1.10;;
25687;SDS011;17407;51.120;3.702;2023-02-26T06:15:07;4.47;;;1.33;;
25687;SDS011;17407;51.120;3.702;2023-02-26T06:17:33;7.57;;;1.20;;
25687;SDS011;17407;51.120;3.702;2023-02-26T06:19:59;4.32;;;1.02;;
25687;SDS011;17407;51.120;3.702;2023-02-26T06:22:25;4.32;;;1.50;;
25687;SDS011;17407;51.120;3.702;2023-02-26T06:24:51;10.55;;;1.70;;
25687;SDS011;17407;51.120;3.702;2023-02-26T06:27:19;8.20;;;1.60;;
25687;SDS011;17407;51.120;3.702;2023-02-26T06:29:44;6.95;;;1.40;;
25687;SDS011;17407;51.120;3.702;2023-02-26T06:32:10;10.82;;;1.77;;
25687;SDS011;17407;51.120;3.702;2023-02-26T06:34:36;5.88;;;1.40;;
25687;SDS011;17407;51.120;3.702;2023-02-26T06:37:01;6.97;;;1.48;;
25687;SDS011;17407;51.120;3.702;2023-02-26T06:39:27;8.80;;;1.40;;
25687;SDS011;17407;51.120;3.702;2023-02-26T06:41:52;8.10;;;1.88;;
25687;SDS011;17407;51.120;3.702;2023-02-26T06:44:18;3.70;;;1.50;;
25687;SDS011;17407;51.120;3.702;2023-02-26T06:46:44;8.02;;;1.77;;
25687;SDS011;17407;51.120;3.702;2023-02-26T06:49:09;5.20;;;1.30;;
25687;SDS011;17407;51.120;3.702;2023-02-26T06:51:35;4.53;;;1.40;;
25687;SDS011;17407;51.120;3.702;2023-02-26T06:54:01;5.97;;;1.65;;
25687;SDS011;17407;51.120;3.702;2023-02-26T06:56:26;5.20;;;1.52;;
25687;SDS011;17407;51.120;3.702;2023-02-26T06:58:52;8.40;;;1.60;;
25687;SDS011;17407;51.120;3.702;2023-02-26T07:01:18;7.40;;;1.30;;
25687;SDS011;17407;51.120;3.702;2023-02-26T07:03:43;7.55;;;1.63;;
25687;SDS011;17407;51.120;3.702;2023-02-26T07:06:09;10.45;;;1.83;;
25687;SDS011;17407;51.120;3.702;2023-02-26T07:08:36;9.52;;;1.60;;
25687;SDS011;17407;51.120;3.702;2023-02-26T07:11:02;5.65;;;2.20;;
25687;SDS011;17407;51.120;3.702;2023-02-26T07:13:28;7.72;;;1.40;;
25687;SDS011;17407;51.120;3.702;2023-02-26T07:15:54;7.95;;;1.88;;
25687;SDS011;17407;51.120;3.702;2023-02-26T07:18:20;15.15;;;2.10;;
25687;SDS011;17407;51.120;3.702;2023-02-26T07:20:49;6.35;;;1.25;;
25687;SDS011;17407;51.120;3.702;2023-02-26T07:23:15;6.63;;;1.70;;
25687;SDS011;17407;51.120;3.702;2023-02-26T07:25:41;4.75;;;1.40;;
25687;SDS011;17407;51.120;3.702;2023-02-26T07:28:07;3.67;;;1.45;;
25687;SDS011;17407;51.120;3.702;2023-02-26T07:30:32;6.18;;;1.67;;
25687;SDS011;17407;51.120;3.702;2023-02-26T07:32:58;6.90;;;1.60;;
25687;SDS011;17407;51.120;3.702;2023-02-26T07:35:24;6.45;;;1.88;;
25687;SDS011;17407;51.120;3.702;2023-02-26T07:37:50;3.88;;;1.50;;
25687;SDS011;17407;51.120;3.702;2023-02-26T07:40:16;8.68;;;1.88;;
25687;SDS011;17407;51.120;3.702;2023-02-26T07:42:42;7.60;;;2.33;;
25687;SDS011;17407;51.120;3.702;2023-02-26T07:45:08;8.43;;;1.83;;
25687;SDS011;17407;51.120;3.702;2023-02-26T07:47:35;8.57;;;1.77;;
25687;SDS011;17407;51.120;3.702;2023-02-26T07:50:01;8.70;;;1.95;;
25687;SDS011;17407;51.120;3.702;2023-02-26T07:52:26;8.05;;;2.05;;
25687;SDS011;17407;51.120;3.702;2023-02-26T07:54:52;5.45;;;2.40;;
25687;SDS011;17407;51.120;3.702;2023-02-26T07:57:19;8.35;;;1.85;;
25687;SDS011;17407;51.120;3.702;2023-02-26T07:59:44;7.50;;;2.70;;
25687;SDS011;17407;51.120;3.702;2023-02-26T08:02:11;12.48;;;3.60;;
25687;SDS011;17407;51.120;3.702;2023-02-26T08:04:37;8.75;;;2.80;;
25687;SDS011;17407;51.120;3.702;2023-02-26T08:07:03;11.30;;;3.10;;
25687;SDS011;17407;51.120;3.702;2023-02-26T08:09:29;6.80;;;2.42;;
25687;SDS011;17407;51.120;3.702;2023-02-26T08:11:55;9.52;;;3.55;;
25687;SDS011;17407;51.120;3.702;2023-02-26T08:14:21;5.93;;;1.83;;
25687;SDS011;17407;51.120;3.702;2023-02-26T08:16:47;8.82;;;1.58;;
25687;SDS011;17407;51.120;3.702;2023-02-26T08:19:13;7.95;;;1.50;;
25687;SDS011;17407;51.120;3.702;2023-02-26T08:21:39;2.80;;;1.30;;
25687;SDS011;17407;51.120;3.702;2023-02-26T08:24:05;9.68;;;1.60;;
25687;SDS011;17407;51.120;3.702;2023-02-26T08:26:33;8.38;;;1.50;;
25687;SDS011;17407;51.120;3.702;2023-02-26T08:29:00;5.78;;;1.38;;
25687;SDS011;17407;51.120;3.702;2023-02-26T08:31:26;10.20;;;1.52;;
25687;SDS011;17407;51.120;3.702;2023-02-26T08:33:52;4.85;;;1.23;;
25687;SDS011;17407;51.120;3.702;2023-02-26T08:36:18;5.50;;;1.63;;
25687;SDS011;17407;51.120;3.702;2023-02-26T08:38:46;5.60;;;1.73;;
25687;SDS011;17407;51.120;3.702;2023-02-26T08:41:11;5.75;;;1.55;;
25687;SDS011;17407;51.120;3.702;2023-02-26T08:43:37;5.00;;;1.67;;
25687;SDS011;17407;51.120;3.702;2023-02-26T08:46:03;5.05;;;2.28;;
25687;SDS011;17407;51.120;3.702;2023-02-26T08:48:29;3.90;;;1.40;;
25687;SDS011;17407;51.120;3.702;2023-02-26T08:50:55;6.13;;;2.10;;
25687;SDS011;17407;51.120;3.702;2023-02-26T08:53:20;4.97;;;1.00;;
25687;SDS011;17407;51.120;3.702;2023-02-26T08:55:47;2.78;;;1.40;;
25687;SDS011;17407;51.120;3.702;2023-02-26T08:58:13;3.25;;;1.60;;
25687;SDS011;17407;51.120;3.702;2023-02-26T09:00:39;2.78;;;1.45;;
25687;SDS011;17407;51.120;3.702;2023-02-26T09:03:04;3.10;;;1.73;;
25687;SDS011;17407;51.120;3.702;2023-02-26T09:05:30;11.90;;;2.47;;
25687;SDS011;17407;51.120;3.702;2023-02-26T09:07:56;3.33;;;1.40;;
25687;SDS011;17407;51.120;3.702;2023-02-26T09:10:22;3.35;;;1.20;;
25687;SDS011;17407;51.120;3.702;2023-02-26T09:12:47;4.60;;;1.35;;
25687;SDS011;17407;51.120;3.702;2023-02-26T09:15:13;4.75;;;1.23;;
25687;SDS011;17407;51.120;3.702;2023-02-26T09:17:39;5.75;;;1.23;;
25687;SDS011;17407;51.120;3.702;2023-02-26T09:20:06;9.68;;;2.08;;
25687;SDS011;17407;51.120;3.702;2023-02-26T09:22:33;7.25;;;2.17;;
25687;SDS011;17407;51.120;3.702;2023-02-26T09:24:59;4.32;;;1.50;;
25687;SDS011;17407;51.120;3.702;2023-02-26T09:27:25;3.28;;;1.10;;
25687;SDS011;17407;51.120;3.702;2023-02-26T09:29:50;6.10;;;1.80;;
25687;SDS011;17407;51.120;3.702;2023-02-26T09:32:16;4.15;;;1.27;;
25687;SDS011;17407;51.120;3.702;2023-02-26T09:34:42;4.70;;;1.85;;
25687;SDS011;17407;51.120;3.702;2023-02-26T09:37:08;6.57;;;2.33;;
25687;SDS011;17407;51.120;3.702;2023-02-26T09:39:34;3.28;;;1.73;;
25687;SDS011;17407;51.120;3.702;2023-02-26T09:42:35;6.93;;;1.98;;
25687;SDS011;17407;51.120;3.702;2023-02-26T09:45:35;6.65;;;3.15;;
25687;SDS011;17407;51.120;3.702;2023-02-26T09:48:02;6.88;;;3.33;;
25687;SDS011;17407;51.120;3.702;2023-02-26T09:50:51;10.90;;;2.50;;
25687;SDS011;17407;51.120;3.702;2023-02-26T09:53:21;4.65;;;1.25;;
25687;SDS011;17407;51.120;3.702;2023-02-26T09:55:51;5.30;;;1.70;;
25687;SDS011;17407;51.120;3.702;2023-02-26T09:58:32;6.35;;;2.70;;
25687;SDS011;17407;51.120;3.702;2023-02-26T10:01:06;4.82;;;2.33;;
25687;SDS011;17407;51.120;3.702;2023-02-26T10:06:31;6.47;;;2.38;;
25687;SDS011;17407;51.120;3.702;2023-02-26T10:14:41;7.38;;;2.45;;
25687;SDS011;17407;51.120;3.702;2023-02-26T10:17:22;4.03;;;1.50;;
25687;SDS011;17407;51.120;3.702;2023-02-26T10:19:56;4.72;;;1.38;;
25687;SDS011;17407;51.120;3.702;2023-02-26T10:25:05;10.52;;;1.92;;
25687;SDS011;17407;51.120;3.702;2023-02-26T10:30:50;4.25;;;1.40;;
25687;SDS011;17407;51.120;3.702;2023-02-26T10:36:28;7.03;;;2.42;;
25687;SDS011;17407;51.120;3.702;2023-02-26T10:39:22;3.63;;;1.75;;
25687;SDS011;17407;51.120;3.702;2023-02-26T10:41:57;3.83;;;1.60;;
25687;SDS011;17407;51.120;3.702;2023-02-26T10:44:37;2.13;;;1.00;;
25687;SDS011;17407;51.120;3.702;2023-02-26T10:52:32;6.25;;;1.63;;
25687;SDS011;17407;51.120;3.702;2023-02-26T10:55:22;6.80;;;1.38;;
25687;SDS011;17407;51.120;3.702;2023-02-26T10:58:06;4.30;;;1.38;;
25687;SDS011;17407;51.120;3.702;2023-02-26T11:00:41;2.58;;;0.90;;
25687;SDS011;17407;51.120;3.702;2023-02-26T11:03:12;3.20;;;1.05;;
25687;SDS011;17407;51.120;3.702;2023-02-26T11:05:41;2.05;;;0.88;;
25687;SDS011;17407;51.120;3.702;2023-02-26T11:08:23;3.08;;;1.10;;
25687;SDS011;17407;51.120;3.702;2023-02-26T11:11:04;5.57;;;0.77;;
25687;SDS011;17407;51.120;3.702;2023-02-26T11:13:30;3.67;;;1.27;;
25687;SDS011;17407;51.120;3.702;2023-02-26T11:16:01;7.25;;;1.40;;
25687;SDS011;17407;51.120;3.702;2023-02-26T11:18:38;1.48;;;1.38;;
25687;SDS011;17407;51.120;3.702;2023-02-26T11:21:06;4.25;;;1.38;;
25687;SDS011;17407;51.120;3.702;2023-02-26T11:23:33;4.13;;;1.00;;
25687;SDS011;17407;51.120;3.702;2023-02-26T11:26:02;6.65;;;1.55;;
25687;SDS011;17407;51.120;3.702;2023-02-26T11:28:37;2.50;;;1.05;;
25687;SDS011;17407;51.120;3.702;2023-02-26T11:31:11;2.22;;;0.98;;
25687;SDS011;17407;51.120;3.702;2023-02-26T11:33:48;2.67;;;1.30;;
25687;SDS011;17407;51.120;3.702;2023-02-26T11:36:18;6.28;;;1.50;;
25687;SDS011;17407;51.120;3.702;2023-02-26T11:38:51;2.72;;;1.00;;
25687;SDS011;17407;51.120;3.702;2023-02-26T11:41:19;3.40;;;1.10;;
25687;SDS011;17407;51.120;3.702;2023-02-26T11:43:47;5.15;;;1.20;;
25687;SDS011;17407;51.120;3.702;2023-02-26T11:46:22;2.08;;;1.35;;
25687;SDS011;17407;51.120;3.702;2023-02-26T11:48:49;3.42;;;1.50;;
25687;SDS011;17407;51.120;3.702;2023-02-26T11:51:18;3.10;;;1.00;;
25687;SDS011;17407;51.120;3.702;2023-02-26T11:56:14;2.78;;;1.38;;
25687;SDS011;17407;51.120;3.702;2023-02-26T11:58:44;4.90;;;1.48;;
25687;SDS011;17407;51.120;3.702;2023-02-26T12:01:12;8.65;;;1.55;;
25687;SDS011;17407;51.120;3.702;2023-02-26T12:03:43;4.75;;;1.92;;
25687;SDS011;17407;51.120;3.702;2023-02-26T12:06:21;4.88;;;1.52;;
25687;SDS011;17407;51.120;3.702;2023-02-26T12:08:48;5.13;;;1.40;;
25687;SDS011;17407;51.120;3.702;2023-02-26T12:16:52;3.95;;;1.17;;
25687;SDS011;17407;51.120;3.702;2023-02-26T12:22:08;1.88;;;0.90;;
25687;SDS011;17407;51.120;3.702;2023-02-26T12:36:12;4.20;;;1.33;;
25687;SDS011;17407;51.120;3.702;2023-02-26T12:41:46;5.90;;;1.83;;
25687;SDS011;17407;51.120;3.702;2023-02-26T12:44:54;4.60;;;1.35;;
25687;SDS011;17407;51.120;3.702;2023-02-26T13:01:24;3.38;;;1.52;;
25687;SDS011;17407;51.120;3.702;2023-02-26T13:09:32;4.45;;;1.33;;
25687;SDS011;17407;51.120;3.702;2023-02-26T13:20:02;5.55;;;1.50;;
25687;SDS011;17407;51.120;3.702;2023-02-26T13:22:46;3.28;;;1.63;;
25687;SDS011;17407;51.120;3.702;2023-02-26T13:25:21;3.83;;;1.55;;
25687;SDS011;17407;51.120;3.702;2023-02-26T13:27:53;1.77;;;1.40;;
25687;SDS011;17407;51.120;3.702;2023-02-26T13:30:29;2.72;;;1.23;;
25687;SDS011;17407;51.120;3.702;2023-02-26T13:33:01;3.78;;;1.30;;
25687;SDS011;17407;51.120;3.702;2023-02-26T13:35:35;4.40;;;1.92;;
25687;SDS011;17407;51.120;3.702;2023-02-26T13:38:06;2.60;;;1.27;;
25687;SDS011;17407;51.120;3.702;2023-02-26T13:40:55;3.45;;;1.40;;
25687;SDS011;17407;51.120;3.702;2023-02-26T13:44:00;7.00;;;2.25;;
25687;SDS011;17407;51.120;3.702;2023-02-26T13:49:46;7.45;;;2.55;;
25687;SDS011;17407;51.120;3.702;2023-02-26T13:52:25;5.30;;;1.75;;
25687;SDS011;17407;51.120;3.702;2023-02-26T13:54:53;5.68;;;1.85;;
25687;SDS011;17407;51.120;3.702;2023-02-26T14:02:49;2.20;;;1.23;;
25687;SDS011;17407;51.120;3.702;2023-02-26T14:05:31;1.90;;;0.95;;
25687;SDS011;17407;51.120;3.702;2023-02-26T14:10:24;2.75;;;1.40;;
25687;SDS011;17407;51.120;3.702;2023-02-26T14:16:21;3.03;;;1.33;;
25687;SDS011;17407;51.120;3.702;2023-02-26T14:23:49;5.65;;;1.17;;
25687;SDS011;17407;51.120;3.702;2023-02-26T14:26:21;2.67;;;1.50;;
25687;SDS011;17407;51.120;3.702;2023-02-26T14:31:49;1.30;;;0.98;;
25687;SDS011;17407;51.120;3.702;2023-02-26T14:34:30;2.88;;;0.95;;
25687;SDS011;17407;51.120;3.702;2023-02-26T14:37:01;2.53;;;1.05;;
25687;SDS011;17407;51.120;3.702;2023-02-26T14:39:47;2.25;;;1.08;;
25687;SDS011;17407;51.120;3.702;2023-02-26T14:47:31;5.45;;;1.20;;
25687;SDS011;17407;51.120;3.702;2023-02-26T14:49:57;4.45;;;1.50;;
25687;SDS011;17407;51.120;3.702;2023-02-26T15:00:59;3.03;;;1.27;;
25687;SDS011;17407;51.120;3.702;2023-02-26T15:09:17;1.80;;;1.40;;
25687;SDS011;17407;51.120;3.702;2023-02-26T15:12:07;1.60;;;1.10;;
25687;SDS011;17407;51.120;3.702;2023-02-26T15:14:50;3.28;;;1.67;;
25687;SDS011;17407;51.120;3.702;2023-02-26T15:17:25;2.10;;;0.98;;
25687;SDS011;17407;51.120;3.702;2023-02-26T15:20:03;2.88;;;1.00;;
25687;SDS011;17407;51.120;3.702;2023-02-26T15:22:44;1.83;;;0.82;;
25687;SDS011;17407;51.120;3.702;2023-02-26T15:25:27;1.58;;;1.13;;
25687;SDS011;17407;51.120;3.702;2023-02-26T15:27:57;2.17;;;1.05;;
25687;SDS011;17407;51.120;3.702;2023-02-26T15:30:24;2.70;;;1.35;;
25687;SDS011;17407;51.120;3.702;2023-02-26T15:32:59;2.20;;;1.40;;
25687;SDS011;17407;51.120;3.702;2023-02-26T15:35:28;2.72;;;1.50;;
25687;SDS011;17407;51.120;3.702;2023-02-26T15:37:56;2.67;;;1.27;;
25687;SDS011;17407;51.120;3.702;2023-02-26T15:40:25;3.92;;;1.60;;
25687;SDS011;17407;51.120;3.702;2023-02-26T15:42:55;1.52;;;1.05;;
25687;SDS011;17407;51.120;3.702;2023-02-26T15:45:41;2.42;;;1.05;;
25687;SDS011;17407;51.120;3.702;2023-02-26T15:48:14;1.73;;;1.30;;
25687;SDS011;17407;51.120;3.702;2023-02-26T15:50:53;7.65;;;2.38;;
25687;SDS011;17407;51.120;3.702;2023-02-26T15:55:56;2.30;;;1.58;;
25687;SDS011;17407;51.120;3.702;2023-02-26T15:58:43;2.70;;;1.20;;
25687;SDS011;17407;51.120;3.702;2023-02-26T16:01:15;2.08;;;1.15;;
25687;SDS011;17407;51.120;3.702;2023-02-26T16:03:42;4.85;;;1.17;;
25687;SDS011;17407;51.120;3.702;2023-02-26T16:06:13;2.45;;;1.10;;
25687;SDS011;17407;51.120;3.702;2023-02-26T16:08:41;5.75;;;1.60;;
25687;SDS011;17407;51.120;3.702;2023-02-26T16:11:07;3.42;;;1.70;;
25687;SDS011;17407;51.120;3.702;2023-02-26T16:13:35;4.90;;;1.77;;
25687;SDS011;17407;51.120;3.702;2023-02-26T16:16:07;5.20;;;1.73;;
25687;SDS011;17407;51.120;3.702;2023-02-26T16:18:41;6.43;;;2.20;;
25687;SDS011;17407;51.120;3.702;2023-02-26T16:21:11;7.28;;;2.05;;
25687;SDS011;17407;51.120;3.702;2023-02-26T16:23:46;4.93;;;1.77;;
25687;SDS011;17407;51.120;3.702;2023-02-26T16:26:21;9.88;;;2.47;;
25687;SDS011;17407;51.120;3.702;2023-02-26T16:29:17;6.25;;;1.98;;
25687;SDS011;17407;51.120;3.702;2023-02-26T16:31:51;5.57;;;1.40;;
25687;SDS011;17407;51.120;3.702;2023-02-26T16:39:54;4.30;;;2.40;;
25687;SDS011;17407;51.120;3.702;2023-02-26T16:47:51;5.03;;;1.48;;
25687;SDS011;17407;51.120;3.702;2023-02-26T16:50:20;3.17;;;1.52;;
25687;SDS011;17407;51.120;3.702;2023-02-26T16:52:59;5.45;;;1.40;;
25687;SDS011;17407;51.120;3.702;2023-02-26T16:55:30;2.63;;;1.38;;
25687;SDS011;17407;51.120;3.702;2023-02-26T16:57:59;5.32;;;1.48;;
25687;SDS011;17407;51.120;3.702;2023-02-26T17:00:30;3.75;;;2.00;;
25687;SDS011;17407;51.120;3.702;2023-02-26T17:03:10;5.95;;;2.60;;
25687;SDS011;17407;51.120;3.702;2023-02-26T17:05:44;3.47;;;2.00;;
25687;SDS011;17407;51.120;3.702;2023-02-26T17:08:25;7.50;;;2.42;;
25687;SDS011;17407;51.120;3.702;2023-02-26T17:11:07;5.78;;;2.33;;
25687;SDS011;17407;51.120;3.702;2023-02-26T17:13:41;5.68;;;2.75;;
25687;SDS011;17407;51.120;3.702;2023-02-26T17:16:10;4.60;;;2.28;;
25687;SDS011;17407;51.120;3.702;2023-02-26T17:18:37;5.13;;;1.90;;
25687;SDS011;17407;51.120;3.702;2023-02-26T17:21:03;3.30;;;2.10;;
25687;SDS011;17407;51.120;3.702;2023-02-26T17:23:30;5.65;;;2.50;;
25687;SDS011;17407;51.120;3.702;2023-02-26T17:25:58;4.00;;;2.65;;
25687;SDS011;17407;51.120;3.702;2023-02-26T17:28:27;8.15;;;2.97;;
25687;SDS011;17407;51.120;3.702;2023-02-26T17:31:14;4.95;;;2.20;;
25687;SDS011;17407;51.120;3.702;2023-02-26T17:33:40;7.97;;;2.63;;
25687;SDS011;17407;51.120;3.702;2023-02-26T17:36:10;5.30;;;2.42;;
25687;SDS011;17407;51.120;3.702;2023-02-26T17:38:39;7.78;;;3.20;;
25687;SDS011;17407;51.120;3.702;2023-02-26T17:41:06;6.07;;;2.55;;
25687;SDS011;17407;51.120;3.702;2023-02-26T17:43:33;8.55;;;2.88;;
25687;SDS011;17407;51.120;3.702;2023-02-26T17:45:59;10.43;;;3.88;;
25687;SDS011;17407;51.120;3.702;2023-02-26T17:48:25;8.30;;;2.90;;
25687;SDS011;17407;51.120;3.702;2023-02-26T17:50:51;5.43;;;2.75;;
25687;SDS011;17407;51.120;3.702;2023-02-26T17:53:19;9.82;;;3.28;;
25687;SDS011;17407;51.120;3.702;2023-02-26T17:55:47;7.45;;;3.03;;
25687;SDS011;17407;51.120;3.702;2023-02-26T17:58:17;7.57;;;2.75;;
25687;SDS011;17407;51.120;3.702;2023-02-26T18:00:44;7.65;;;2.63;;
25687;SDS011;17407;51.120;3.702;2023-02-26T18:03:13;9.43;;;2.67;;
25687;SDS011;17407;51.120;3.702;2023-02-26T18:05:39;5.20;;;3.38;;
25687;SDS011;17407;51.120;3.702;2023-02-26T18:08:06;7.68;;;3.20;;
25687;SDS011;17407;51.120;3.702;2023-02-26T18:10:40;14.43;;;4.20;;
25687;SDS011;17407;51.120;3.702;2023-02-26T18:13:07;12.88;;;5.35;;
25687;SDS011;17407;51.120;3.702;2023-02-26T18:15:34;12.82;;;4.65;;